createdAt,value
2023-03-17T00:02:10.672Z,50.15
2023-03-17T00:04:38.400Z,49.62
2023-03-17T00:07:05.720Z,49.95
2023-03-17T00:09:32.112Z,49.61
2023-03-17T00:11:58.507Z,50.71
2023-03-17T00:14:25.009Z,49.88
2023-03-17T00:16:52.782Z,50.22
2023-03-17T00:19:24.042Z,50.24
2023-03-17T00:21:51.729Z,50.51
2023-03-17T00:24:18.126Z,50.44
2023-03-17T00:26:44.510Z,50.34
2023-03-17T00:29:10.956Z,50.65
2023-03-17T00:31:38.386Z,49.77
2023-03-17T00:34:04.952Z,50.27
2023-03-17T00:36:33.488Z,50.76
2023-03-17T00:39:01.393Z,50.29
2023-03-17T00:41:27.857Z,51.01
2023-03-17T00:43:54.220Z,50.73
2023-03-17T00:46:24.301Z,50.56
2023-03-17T00:48:50.933Z,50.66
2023-03-17T00:51:17.287Z,51.32
2023-03-17T00:53:44.093Z,51.48
2023-03-17T00:56:15.011Z,51.00
2023-03-17T00:58:41.713Z,51.34
2023-03-17T01:01:08.219Z,51.08
2023-03-17T01:03:34.876Z,51.12
2023-03-17T01:06:03.004Z,51.77
2023-03-17T01:08:30.201Z,51.73
2023-03-17T01:10:57.026Z,51.15
2023-03-17T01:13:25.165Z,51.72
2023-03-17T01:15:52.408Z,51.86
2023-03-17T01:18:21.692Z,51.62
2023-03-17T01:20:49.183Z,50.59
2023-03-17T01:23:15.914Z,51.56
2023-03-17T01:25:43.523Z,51.32
2023-03-17T01:28:12.878Z,51.98
2023-03-17T01:30:41.049Z,50.96
2023-03-17T01:33:09.053Z,50.69
2023-03-17T01:35:37.304Z,50.57
2023-03-17T01:38:04.628Z,50.87
2023-03-17T01:40:33.251Z,51.21
2023-03-17T01:43:03.795Z,50.90
2023-03-17T01:46:19.078Z,50.92
2023-03-17T01:48:54.632Z,51.78
2023-03-17T01:51:25.114Z,51.57
2023-03-17T01:53:52.460Z,51.13
2023-03-17T01:56:19.435Z,52.50
2023-03-17T01:58:49.502Z,51.39
2023-03-17T02:01:15.943Z,51.62
2023-03-17T02:03:42.631Z,51.03
2023-03-17T02:06:11.254Z,51.99
2023-03-17T02:08:37.633Z,51.81
2023-03-17T02:11:04.714Z,51.30
2023-03-17T02:13:31.509Z,52.04
2023-03-17T02:15:57.869Z,51.62
2023-03-17T02:18:24.275Z,52.02
2023-03-17T02:21:23.468Z,50.06
2023-03-17T02:23:51.288Z,50.87
2023-03-17T02:26:19.640Z,50.03
2023-03-17T02:28:46.219Z,51.03
2023-03-17T02:31:12.675Z,51.43
2023-03-17T02:33:39.088Z,51.30
2023-03-17T02:36:06.125Z,51.52
2023-03-17T02:38:32.537Z,51.21
2023-03-17T02:41:00.255Z,52.00
2023-03-17T02:43:26.663Z,52.05
2023-03-17T02:45:53.075Z,51.89
2023-03-17T02:48:19.523Z,51.64
2023-03-17T02:50:46.049Z,51.76
2023-03-17T02:53:12.385Z,51.76
2023-03-17T02:55:38.735Z,52.08
2023-03-17T02:58:06.514Z,52.59
2023-03-17T03:00:33.027Z,52.23
2023-03-17T03:02:59.504Z,52.21
2023-03-17T03:05:26.413Z,52.21
2023-03-17T03:07:52.823Z,51.55
2023-03-17T03:10:19.317Z,51.89
2023-03-17T03:12:45.785Z,51.73
2023-03-17T03:15:13.719Z,52.00
2023-03-17T03:17:40.103Z,52.47
2023-03-17T03:20:07.199Z,52.86
2023-03-17T03:22:33.569Z,52.29
2023-03-17T03:24:59.942Z,51.28
2023-03-17T03:27:26.389Z,51.28
2023-03-17T03:29:52.757Z,51.35
2023-03-17T03:32:20.461Z,51.65
2023-03-17T03:34:46.853Z,51.56
2023-03-17T03:37:13.239Z,51.66
2023-03-17T03:39:39.607Z,52.12
2023-03-17T03:42:06.359Z,51.59
2023-03-17T03:44:32.936Z,52.53
2023-03-17T03:46:59.302Z,52.78
2023-03-17T03:49:27.023Z,53.30
2023-03-17T03:51:53.445Z,52.96
2023-03-17T03:54:19.933Z,53.30
2023-03-17T03:56:46.357Z,52.81
2023-03-17T03:59:12.716Z,52.96
2023-03-17T04:01:39.088Z,53.45
2023-03-17T04:04:05.484Z,52.68
2023-03-17T04:06:33.182Z,52.12
2023-03-17T04:08:59.548Z,52.53
2023-03-17T04:11:25.969Z,52.91
2023-03-17T04:13:52.337Z,53.54
2023-03-17T04:16:18.792Z,53.41
2023-03-17T04:18:45.240Z,53.84
2023-03-17T04:21:11.619Z,53.55
2023-03-17T04:23:39.296Z,52.88
2023-03-17T04:26:05.713Z,52.57
2023-03-17T04:28:32.046Z,53.33
2023-03-17T04:30:58.402Z,53.47
2023-03-17T04:33:24.856Z,52.26
2023-03-17T04:35:51.337Z,52.57
2023-03-17T04:38:17.727Z,52.30
2023-03-17T04:40:45.797Z,52.60
2023-03-17T04:43:12.194Z,53.54
2023-03-17T04:45:38.749Z,52.93
2023-03-17T04:48:06.185Z,53.55
2023-03-17T04:50:33.124Z,53.74
2023-03-17T04:52:59.775Z,53.75
2023-03-17T04:55:26.293Z,52.55
2023-03-17T04:57:54.065Z,52.72
2023-03-17T05:00:21.070Z,53.09
2023-03-17T05:02:47.610Z,52.96
2023-03-17T05:05:13.969Z,53.59
2023-03-17T05:07:40.328Z,52.72
2023-03-17T05:10:07.745Z,52.67
2023-03-17T05:12:34.110Z,52.77
2023-03-17T05:15:01.829Z,52.08
2023-03-17T05:17:28.196Z,52.45
2023-03-17T05:19:54.555Z,52.82
2023-03-17T05:22:20.922Z,52.48
2023-03-17T05:24:47.369Z,52.37
2023-03-17T05:27:13.851Z,53.15
2023-03-17T05:29:40.262Z,52.78
2023-03-17T05:32:08.039Z,52.54
2023-03-17T05:34:34.413Z,52.46
2023-03-17T05:37:00.776Z,52.81
2023-03-17T05:39:27.164Z,51.98
2023-03-17T05:41:53.512Z,50.99
2023-03-17T05:44:19.861Z,51.16
2023-03-17T05:46:46.249Z,52.43
2023-03-17T05:49:13.998Z,51.45
2023-03-17T05:51:40.334Z,51.71
2023-03-17T05:54:06.725Z,51.42
2023-03-17T05:56:33.089Z,52.34
2023-03-17T05:58:59.848Z,52.37
2023-03-17T06:01:26.407Z,52.25
2023-03-17T06:03:53.013Z,51.83
2023-03-17T06:06:20.737Z,52.18
2023-03-17T06:08:47.137Z,51.61
2023-03-17T06:11:13.511Z,52.14
2023-03-17T06:13:39.858Z,51.72
2023-03-17T06:16:07.170Z,52.30
2023-03-17T06:18:33.592Z,52.38
2023-03-17T06:20:59.943Z,52.10
2023-03-17T06:23:27.630Z,51.64
2023-03-17T06:25:53.987Z,52.44
2023-03-17T06:28:20.358Z,51.90
2023-03-17T06:30:46.789Z,51.51
2023-03-17T06:33:13.326Z,51.66
2023-03-17T06:35:39.960Z,51.23
2023-03-17T06:38:06.960Z,50.80
2023-03-17T06:40:34.695Z,50.15
2023-03-17T06:43:01.204Z,52.00
2023-03-17T06:45:27.827Z,51.70
2023-03-17T06:47:54.619Z,51.12
2023-03-17T06:50:21.190Z,51.02
2023-03-17T06:52:47.715Z,51.05
2023-03-17T06:55:14.174Z,51.01
2023-03-17T06:57:41.980Z,50.13
2023-03-17T07:00:09.935Z,50.24
2023-03-17T07:02:36.333Z,50.53
2023-03-17T07:05:02.846Z,49.63
2023-03-17T07:07:29.301Z,49.43
2023-03-17T07:09:55.661Z,49.17
2023-03-17T07:12:22.126Z,49.56
2023-03-17T07:14:49.888Z,48.40
2023-03-17T07:17:16.267Z,48.25
2023-03-17T07:19:42.681Z,48.25
2023-03-17T07:22:11.212Z,48.59
2023-03-17T07:24:37.593Z,48.13
2023-03-17T07:27:04.008Z,47.66
2023-03-17T07:29:30.593Z,47.56
2023-03-17T07:31:58.301Z,47.10
2023-03-17T07:34:24.762Z,47.03
2023-03-17T07:36:51.198Z,46.84
2023-03-17T07:39:17.589Z,46.92
2023-03-17T07:41:44.091Z,46.07
2023-03-17T07:44:10.914Z,45.17
2023-03-17T07:46:37.779Z,45.93
2023-03-17T07:49:05.616Z,45.81
2023-03-17T07:51:32.131Z,44.88
2023-03-17T07:53:58.517Z,45.83
2023-03-17T07:56:24.865Z,44.71
2023-03-17T07:58:51.459Z,44.20
2023-03-17T08:01:17.881Z,43.58
2023-03-17T08:03:44.354Z,43.02
2023-03-17T08:06:12.068Z,43.36
2023-03-17T08:08:38.417Z,43.00
2023-03-17T08:11:05.402Z,43.24
2023-03-17T08:13:32.265Z,43.10
2023-03-17T08:15:58.888Z,42.87
2023-03-17T08:18:25.283Z,43.93
2023-03-17T08:20:51.797Z,42.66
2023-03-17T08:23:20.450Z,43.60
2023-03-17T08:25:47.293Z,43.53
2023-03-17T08:28:14.278Z,42.20
2023-03-17T08:30:41.275Z,43.01
2023-03-17T08:33:08.154Z,41.92
2023-03-17T08:35:35.013Z,42.42
2023-03-17T08:38:01.696Z,43.10
2023-03-17T08:40:30.113Z,41.98
2023-03-17T08:42:56.686Z,42.08
2023-03-17T08:45:23.575Z,41.84
2023-03-17T08:47:50.014Z,42.46
2023-03-17T08:50:19.485Z,41.54
2023-03-17T08:52:46.475Z,41.02
2023-03-17T08:55:14.069Z,42.27
2023-03-17T08:57:42.107Z,41.83
2023-03-17T09:00:10.658Z,42.73
2023-03-17T09:02:37.176Z,42.45
2023-03-17T09:05:03.941Z,42.90
2023-03-17T09:07:30.385Z,41.98
2023-03-17T09:09:56.775Z,42.63
2023-03-17T09:12:23.152Z,42.33
2023-03-17T09:14:50.917Z,42.27
2023-03-17T09:17:17.309Z,42.38
2023-03-17T09:19:43.841Z,42.46
2023-03-17T09:22:12.514Z,41.63
2023-03-17T09:24:38.857Z,42.08
2023-03-17T09:27:05.662Z,42.13
2023-03-17T09:29:32.005Z,41.59
2023-03-17T09:32:01.161Z,41.54
2023-03-17T09:34:27.896Z,41.58
2023-03-17T09:36:55.980Z,40.75
2023-03-17T09:39:22.888Z,40.11
2023-03-17T09:42:12.149Z,40.77
2023-03-17T09:44:56.316Z,38.94
2023-03-17T09:47:48.579Z,39.19
2023-03-17T09:50:19.004Z,39.60
2023-03-17T09:52:45.538Z,39.19
2023-03-17T09:55:19.963Z,39.00
2023-03-17T09:57:47.456Z,39.63
2023-03-17T10:00:16.853Z,39.38
2023-03-17T10:02:45.556Z,37.64
2023-03-17T10:05:18.920Z,38.77
2023-03-17T10:07:53.009Z,38.65
2023-03-17T10:10:25.639Z,37.70
2023-03-17T10:13:02.630Z,38.70
2023-03-17T10:15:34.781Z,38.02
2023-03-17T10:18:08.480Z,37.70
2023-03-17T10:20:38.097Z,37.52
2023-03-17T10:23:09.940Z,37.97
2023-03-17T10:25:36.694Z,38.96
2023-03-17T10:28:09.027Z,37.54
2023-03-17T10:30:35.644Z,37.35
2023-03-17T10:33:05.122Z,36.92
2023-03-17T10:35:31.956Z,37.77
2023-03-17T10:38:13.499Z,37.84
2023-03-17T10:40:40.884Z,37.52
2023-03-17T10:43:13.971Z,37.45
2023-03-17T10:45:54.129Z,37.86
2023-03-17T10:48:21.843Z,36.95
2023-03-17T10:50:49.578Z,36.46
2023-03-17T10:53:20.681Z,36.02
2023-03-17T10:55:49.752Z,36.48
2023-03-17T10:58:18.345Z,36.90
2023-03-17T11:00:55.584Z,37.78
2023-03-17T11:03:25.795Z,37.67
2023-03-17T11:05:56.818Z,37.31
2023-03-17T11:08:23.670Z,36.55
2023-03-17T11:10:55.098Z,36.00
2023-03-17T11:13:21.563Z,36.15
2023-03-17T11:15:52.908Z,38.19
2023-03-17T11:18:23.303Z,36.70
2023-03-17T11:20:56.691Z,37.36
2023-03-17T11:23:37.871Z,36.94
2023-03-17T11:26:16.873Z,37.49
2023-03-17T11:28:50.386Z,37.57
2023-03-17T11:31:22.605Z,37.30
2023-03-17T11:33:57.859Z,36.50
2023-03-17T11:36:42.242Z,36.54
2023-03-17T11:39:12.587Z,37.19
2023-03-17T11:41:49.453Z,37.27
2023-03-17T11:44:43.067Z,37.35
2023-03-17T11:47:22.336Z,37.34
2023-03-17T11:49:54.032Z,36.97
2023-03-17T11:52:28.063Z,36.49
2023-03-17T11:55:04.630Z,37.34
2023-03-17T11:57:35.003Z,36.90
2023-03-17T12:00:09.068Z,36.73
2023-03-17T12:02:40.626Z,36.88
2023-03-17T12:05:11.140Z,37.14
2023-03-17T12:07:43.135Z,36.52
2023-03-17T12:10:19.190Z,36.81
2023-03-17T12:12:49.841Z,36.52
2023-03-17T12:15:20.832Z,37.32
2023-03-17T12:17:54.054Z,36.57
2023-03-17T12:20:29.952Z,37.89
2023-03-17T12:23:02.502Z,37.22
2023-03-17T12:25:32.291Z,36.75
2023-03-17T12:28:03.055Z,36.23
2023-03-17T12:30:33.614Z,36.27
2023-03-17T12:33:15.611Z,35.54
2023-03-17T12:35:42.130Z,37.12
2023-03-17T12:38:13.521Z,37.80
2023-03-17T12:40:57.730Z,37.29
2023-03-17T12:43:36.635Z,36.55
2023-03-17T12:46:26.949Z,36.77
2023-03-17T12:49:14.741Z,37.43
2023-03-17T12:51:57.745Z,35.94
2023-03-17T12:54:28.793Z,37.27
2023-03-17T12:57:02.039Z,37.32
2023-03-17T12:59:28.585Z,36.43
2023-03-17T13:01:56.442Z,37.49
2023-03-17T13:04:27.138Z,35.68
2023-03-17T13:06:59.782Z,35.81
2023-03-17T13:09:33.869Z,36.43
2023-03-17T13:12:02.174Z,36.12
2023-03-17T13:14:40.691Z,36.28
2023-03-17T13:17:31.160Z,35.72
2023-03-17T13:20:11.315Z,36.58
2023-03-17T13:22:39.366Z,36.10
2023-03-17T13:25:25.916Z,36.20
2023-03-17T13:27:52.372Z,36.64
2023-03-17T13:30:53.886Z,36.25
2023-03-17T13:33:21.489Z,35.92
2023-03-17T13:36:03.018Z,35.93
2023-03-17T13:39:15.133Z,36.47
2023-03-17T13:41:51.806Z,36.05
2023-03-17T13:44:46.145Z,36.23
2023-03-17T13:47:25.768Z,37.04
2023-03-17T13:49:54.829Z,36.50
2023-03-17T13:52:27.555Z,35.62
2023-03-17T13:55:01.501Z,36.07
2023-03-17T13:57:30.293Z,35.98
2023-03-17T14:00:03.290Z,36.25
2023-03-17T14:02:32.748Z,35.08
2023-03-17T14:05:00.799Z,35.44
2023-03-17T14:07:31.091Z,36.09
2023-03-17T14:09:59.372Z,36.50
2023-03-17T14:12:33.003Z,36.83
2023-03-17T14:15:02.463Z,36.60
2023-03-17T14:17:32.853Z,36.93
2023-03-17T14:20:01.154Z,37.29
2023-03-17T14:22:28.129Z,37.36
2023-03-17T14:24:55.771Z,37.35
2023-03-17T14:27:24.108Z,36.36
2023-03-17T14:29:51.990Z,36.65
2023-03-17T14:32:20.431Z,35.65
2023-03-17T14:34:48.419Z,36.00
2023-03-17T14:37:15.819Z,37.04
2023-03-17T14:39:48.322Z,36.81
2023-03-17T14:42:18.142Z,37.19
2023-03-17T14:44:44.522Z,37.33
2023-03-17T14:47:19.307Z,36.98
2023-03-17T14:49:46.338Z,37.19
2023-03-17T14:52:19.992Z,36.41
2023-03-17T14:54:49.151Z,36.97
2023-03-17T14:57:16.141Z,37.19
2023-03-17T14:59:44.134Z,37.09
2023-03-17T15:02:31.696Z,37.10
2023-03-17T15:05:01.442Z,36.81
2023-03-17T15:07:31.773Z,36.35
2023-03-17T15:09:59.027Z,36.68
2023-03-17T15:12:26.400Z,36.77
2023-03-17T15:14:56.170Z,36.21
2023-03-17T15:17:28.552Z,36.87
2023-03-17T15:19:57.335Z,36.85
2023-03-17T15:22:26.434Z,37.22
2023-03-17T15:24:59.554Z,37.21
2023-03-17T15:27:26.207Z,38.07
2023-03-17T15:29:52.581Z,37.17
2023-03-17T15:32:22.018Z,36.71
2023-03-17T15:34:51.345Z,37.07
2023-03-17T15:37:20.058Z,38.39
2023-03-17T15:39:47.270Z,37.65
2023-03-17T15:42:13.826Z,37.80
2023-03-17T15:44:40.237Z,37.86
2023-03-17T15:47:06.776Z,37.81
2023-03-17T15:49:33.189Z,37.29
2023-03-17T15:52:00.881Z,37.58
2023-03-17T15:54:27.254Z,38.09
2023-03-17T15:56:53.658Z,38.52
2023-03-17T15:59:20.018Z,39.01
2023-03-17T16:01:46.501Z,38.01
2023-03-17T16:04:13.023Z,38.22
2023-03-17T16:06:39.458Z,38.30
2023-03-17T16:09:14.741Z,37.83
2023-03-17T16:11:41.112Z,38.14
2023-03-17T16:14:07.604Z,38.51
2023-03-17T16:16:37.493Z,38.14
2023-03-17T16:19:05.594Z,38.38
2023-03-17T16:21:32.161Z,37.54
2023-03-17T16:23:58.657Z,38.68
2023-03-17T16:26:26.408Z,38.50
2023-03-17T16:28:52.808Z,38.49
2023-03-17T16:31:25.481Z,38.43
2023-03-17T16:33:54.822Z,38.11
2023-03-17T16:36:23.133Z,38.54
2023-03-17T16:38:50.617Z,38.62
2023-03-17T16:41:19.852Z,38.06
2023-03-17T16:43:50.617Z,39.27
2023-03-17T16:46:19.138Z,39.48
2023-03-17T16:48:45.568Z,38.98
2023-03-17T16:51:11.970Z,39.37
2023-03-17T16:53:38.323Z,39.01
2023-03-17T16:56:09.671Z,38.34
2023-03-17T16:58:36.107Z,38.55
2023-03-17T17:01:10.999Z,38.73
2023-03-17T17:03:37.622Z,38.42
2023-03-17T17:06:04.639Z,38.82
2023-03-17T17:08:31.139Z,39.79
2023-03-17T17:10:57.561Z,39.11
2023-03-17T17:13:23.936Z,39.14
2023-03-17T17:15:50.384Z,39.17
2023-03-17T17:18:20.287Z,39.71
2023-03-17T17:20:46.659Z,39.76
2023-03-17T17:23:15.339Z,39.56
2023-03-17T17:25:42.566Z,40.44
2023-03-17T17:28:09.889Z,40.24
2023-03-17T17:30:36.413Z,40.34
2023-03-17T17:33:04.202Z,40.46
2023-03-17T17:35:33.149Z,41.09
2023-03-17T17:38:00.428Z,41.24
2023-03-17T17:40:27.196Z,40.67
2023-03-17T17:42:54.821Z,41.36
2023-03-17T17:45:22.252Z,41.82
2023-03-17T17:47:49.077Z,41.45
2023-03-17T17:50:18.996Z,41.98
2023-03-17T17:52:47.860Z,42.09
2023-03-17T17:55:14.478Z,42.35
2023-03-17T17:57:40.881Z,42.39
2023-03-17T18:00:08.876Z,42.60
2023-03-17T18:02:35.433Z,42.82
2023-03-17T18:05:02.049Z,42.54
2023-03-17T18:07:28.679Z,41.55
2023-03-17T18:09:56.378Z,41.48
2023-03-17T18:12:22.738Z,41.72
2023-03-17T18:14:49.164Z,41.83
2023-03-17T18:17:15.531Z,41.08
2023-03-17T18:19:41.900Z,41.33
2023-03-17T18:22:08.309Z,41.35
2023-03-17T18:24:34.702Z,41.23
2023-03-17T18:27:02.403Z,42.10
2023-03-17T18:29:28.771Z,42.14
2023-03-17T18:31:55.258Z,41.68
2023-03-17T18:34:23.951Z,41.17
2023-03-17T18:36:51.390Z,41.37
2023-03-17T18:39:17.886Z,40.75
2023-03-17T18:41:44.578Z,40.87
2023-03-17T18:44:12.257Z,42.12
2023-03-17T18:46:39.044Z,42.36
2023-03-17T18:49:05.950Z,41.15
2023-03-17T18:51:32.871Z,41.41
2023-03-17T18:53:59.361Z,40.83
2023-03-17T18:56:25.902Z,41.25
2023-03-17T18:58:52.261Z,40.35
2023-03-17T19:01:20.092Z,41.82
2023-03-17T19:03:46.491Z,41.29
2023-03-17T19:06:15.184Z,40.85
2023-03-17T19:08:42.338Z,40.95
2023-03-17T19:11:10.233Z,41.00
2023-03-17T19:13:37.238Z,42.23
2023-03-17T19:16:04.924Z,41.35
2023-03-17T19:18:32.804Z,43.29
2023-03-17T19:20:59.676Z,42.25
2023-03-17T19:23:26.130Z,41.80
2023-03-17T19:25:52.703Z,41.98
2023-03-17T19:28:19.187Z,41.65
2023-03-17T19:30:45.894Z,41.49
2023-03-17T19:33:12.788Z,41.36
2023-03-17T19:35:41.309Z,40.88
2023-03-17T19:38:07.766Z,41.97
2023-03-17T19:40:34.214Z,41.60
2023-03-17T19:43:00.691Z,42.52
2023-03-17T19:45:27.137Z,41.37
2023-03-17T19:47:53.593Z,41.10
2023-03-17T19:50:19.952Z,42.44
2023-03-17T19:52:47.665Z,42.64
2023-03-17T19:55:14.312Z,42.96
2023-03-17T19:57:40.716Z,42.86
2023-03-17T20:00:08.761Z,43.81
2023-03-17T20:02:35.160Z,44.73
2023-03-17T20:05:01.543Z,45.28
2023-03-17T20:07:28.002Z,44.70
2023-03-17T20:09:55.713Z,45.13
2023-03-17T20:12:22.692Z,47.37
2023-03-17T20:14:49.293Z,47.47
2023-03-17T20:17:15.645Z,47.11
2023-03-17T20:19:42.032Z,51.78
2023-03-17T20:22:08.673Z,49.82
2023-03-17T20:24:35.491Z,54.14
2023-03-17T20:27:03.634Z,52.91
2023-03-17T20:29:30.062Z,60.52
2023-03-17T20:31:56.449Z,56.49
2023-03-17T20:34:23.346Z,57.08
2023-03-17T20:36:49.809Z,56.73
2023-03-17T20:39:16.194Z,56.40
2023-03-17T20:41:42.621Z,56.09
2023-03-17T20:44:10.340Z,55.71
2023-03-17T20:46:36.724Z,56.40
2023-03-17T20:49:03.175Z,57.95
2023-03-17T20:51:30.156Z,59.54
2023-03-17T20:53:56.529Z,58.53
2023-03-17T20:56:24.444Z,58.23
2023-03-17T20:58:51.413Z,58.98
2023-03-17T21:01:21.196Z,62.40
2023-03-17T21:03:48.387Z,61.93
2023-03-17T21:06:14.869Z,62.10
2023-03-17T21:08:41.239Z,57.68
2023-03-17T21:11:08.945Z,59.87
2023-03-17T21:13:36.060Z,65.48
2023-03-17T21:16:02.749Z,65.39
2023-03-17T21:18:30.540Z,68.53
2023-03-17T21:20:56.951Z,71.26
2023-03-17T21:23:23.341Z,69.30
2023-03-17T21:25:53.736Z,68.30
2023-03-17T21:28:20.111Z,68.53
2023-03-17T21:30:46.458Z,69.76
2023-03-17T21:33:12.802Z,72.51
2023-03-17T21:35:40.595Z,70.79
2023-03-17T21:38:07.050Z,70.92
2023-03-17T21:40:33.863Z,69.91
2023-03-17T21:43:00.320Z,66.74
2023-03-17T21:45:26.802Z,67.13
2023-03-17T21:47:53.421Z,68.37
2023-03-17T21:50:20.745Z,69.44
2023-03-17T21:52:48.463Z,68.71
2023-03-17T21:55:14.877Z,67.64
2023-03-17T21:57:41.708Z,68.58
2023-03-17T22:00:09.537Z,67.57
2023-03-17T22:02:36.018Z,68.14
2023-03-17T22:05:02.780Z,68.06
2023-03-17T22:07:29.320Z,68.95
2023-03-17T22:09:57.193Z,66.92
2023-03-17T22:12:23.813Z,66.66
2023-03-17T22:14:50.982Z,65.74
2023-03-17T22:17:17.369Z,66.92
2023-03-17T22:19:43.754Z,64.79
2023-03-17T22:22:10.445Z,64.51
2023-03-17T22:24:36.931Z,63.70
2023-03-17T22:27:05.199Z,62.82
2023-03-17T22:29:31.588Z,59.83
2023-03-17T22:31:58.138Z,61.71
2023-03-17T22:34:24.674Z,61.26
2023-03-17T22:36:51.034Z,60.42
2023-03-17T22:39:17.658Z,61.09
2023-03-17T22:41:44.109Z,60.84
2023-03-17T22:44:12.182Z,61.71
2023-03-17T22:46:39.015Z,61.00
2023-03-17T22:49:11.464Z,61.88
2023-03-17T22:51:38.255Z,59.81
2023-03-17T22:54:04.705Z,58.36
2023-03-17T22:56:31.512Z,60.60
2023-03-17T22:58:57.854Z,58.11
2023-03-17T23:01:25.921Z,59.30
2023-03-17T23:03:53.095Z,59.31
2023-03-17T23:06:20.300Z,58.41
2023-03-17T23:08:46.835Z,58.45
2023-03-17T23:11:15.682Z,58.49
2023-03-17T23:13:42.017Z,58.38
2023-03-17T23:16:09.020Z,58.35
2023-03-17T23:18:36.733Z,57.45
2023-03-17T23:21:04.941Z,58.04
2023-03-17T23:23:31.344Z,55.36
2023-03-17T23:25:57.829Z,55.39
2023-03-17T23:28:24.345Z,57.07
2023-03-17T23:30:51.002Z,53.36
2023-03-17T23:33:17.943Z,53.37
2023-03-17T23:35:45.640Z,53.10
2023-03-17T23:38:12.035Z,52.89
2023-03-17T23:40:38.437Z,53.65
2023-03-17T23:43:04.916Z,53.06
2023-03-17T23:45:31.566Z,52.79
2023-03-17T23:47:57.944Z,52.80
2023-03-17T23:50:24.358Z,53.14
2023-03-17T23:52:52.028Z,52.19
2023-03-17T23:55:18.434Z,54.90
2023-03-17T23:57:45.166Z,56.00
